sensor_id;sensor_type;location;lat;lon;timestamp;P1;durP1;ratioP1;P2;durP2;ratioP2
67174;SDS011;54110;45.778;4.826;2022-12-07T00:01:36;4.88;;;2.22;;
67174;SDS011;54110;45.778;4.826;2022-12-07T00:04:03;6.25;;;2.65;;
67174;SDS011;54110;45.778;4.826;2022-12-07T00:06:29;4.00;;;2.08;;
67174;SDS011;54110;45.778;4.826;2022-12-07T00:08:57;3.67;;;1.92;;
67174;SDS011;54110;45.778;4.826;2022-12-07T00:11:23;4.28;;;2.15;;
67174;SDS011;54110;45.778;4.826;2022-12-07T00:13:50;4.57;;;2.45;;
67174;SDS011;54110;45.778;4.826;2022-12-07T00:16:18;4.50;;;2.25;;
67174;SDS011;54110;45.778;4.826;2022-12-07T00:18:44;8.35;;;2.67;;
67174;SDS011;54110;45.778;4.826;2022-12-07T00:21:10;9.00;;;2.97;;
67174;SDS011;54110;45.778;4.826;2022-12-07T00:23:37;5.75;;;2.97;;
67174;SDS011;54110;45.778;4.826;2022-12-07T00:26:06;4.68;;;2.30;;
67174;SDS011;54110;45.778;4.826;2022-12-07T00:28:32;4.63;;;2.30;;
67174;SDS011;54110;45.778;4.826;2022-12-07T00:30:59;6.20;;;2.45;;
67174;SDS011;54110;45.778;4.826;2022-12-07T00:33:25;4.45;;;2.70;;
67174;SDS011;54110;45.778;4.826;2022-12-07T00:35:54;5.18;;;2.08;;
67174;SDS011;54110;45.778;4.826;2022-12-07T00:38:20;6.60;;;2.83;;
67174;SDS011;54110;45.778;4.826;2022-12-07T00:40:53;4.82;;;2.55;;
67174;SDS011;54110;45.778;4.826;2022-12-07T00:43:20;11.00;;;3.60;;
67174;SDS011;54110;45.778;4.826;2022-12-07T00:45:46;6.10;;;2.45;;
67174;SDS011;54110;45.778;4.826;2022-12-07T00:48:12;5.18;;;2.20;;
67174;SDS011;54110;45.778;4.826;2022-12-07T00:50:38;6.13;;;2.63;;
67174;SDS011;54110;45.778;4.826;2022-12-07T00:53:04;5.60;;;2.03;;
67174;SDS011;54110;45.778;4.826;2022-12-07T00:55:32;10.15;;;2.70;;
67174;SDS011;54110;45.778;4.826;2022-12-07T00:57:58;4.00;;;2.28;;
67174;SDS011;54110;45.778;4.826;2022-12-07T01:00:25;7.80;;;2.42;;
67174;SDS011;54110;45.778;4.826;2022-12-07T01:02:51;6.05;;;2.55;;
67174;SDS011;54110;45.778;4.826;2022-12-07T01:05:17;14.20;;;2.47;;
67174;SDS011;54110;45.778;4.826;2022-12-07T01:07:44;5.75;;;2.95;;
67174;SDS011;54110;45.778;4.826;2022-12-07T01:10:10;2.92;;;1.95;;
67174;SDS011;54110;45.778;4.826;2022-12-07T01:12:36;5.18;;;2.47;;
67174;SDS011;54110;45.778;4.826;2022-12-07T01:15:02;4.40;;;2.45;;
67174;SDS011;54110;45.778;4.826;2022-12-07T01:17:29;5.82;;;2.47;;
67174;SDS011;54110;45.778;4.826;2022-12-07T01:19:55;5.15;;;1.67;;
67174;SDS011;54110;45.778;4.826;2022-12-07T01:22:21;4.30;;;2.35;;
67174;SDS011;54110;45.778;4.826;2022-12-07T01:24:48;4.70;;;2.20;;
67174;SDS011;54110;45.778;4.826;2022-12-07T01:27:14;5.97;;;2.13;;
67174;SDS011;54110;45.778;4.826;2022-12-07T01:29:40;5.57;;;2.20;;
67174;SDS011;54110;45.778;4.826;2022-12-07T01:32:06;8.10;;;2.25;;
67174;SDS011;54110;45.778;4.826;2022-12-07T01:34:33;3.67;;;1.95;;
67174;SDS011;54110;45.778;4.826;2022-12-07T01:36:59;9.63;;;2.13;;
67174;SDS011;54110;45.778;4.826;2022-12-07T01:39:25;4.78;;;2.22;;
67174;SDS011;54110;45.778;4.826;2022-12-07T01:41:51;3.50;;;1.40;;
67174;SDS011;54110;45.778;4.826;2022-12-07T01:44:19;7.40;;;2.97;;
67174;SDS011;54110;45.778;4.826;2022-12-07T01:46:45;3.42;;;1.73;;
67174;SDS011;54110;45.778;4.826;2022-12-07T01:49:14;6.47;;;2.65;;
67174;SDS011;54110;45.778;4.826;2022-12-07T01:51:43;6.35;;;2.10;;
67174;SDS011;54110;45.778;4.826;2022-12-07T01:54:09;6.30;;;2.38;;
67174;SDS011;54110;45.778;4.826;2022-12-07T01:56:37;8.07;;;2.75;;
67174;SDS011;54110;45.778;4.826;2022-12-07T01:59:04;2.88;;;1.77;;
67174;SDS011;54110;45.778;4.826;2022-12-07T02:01:30;9.90;;;2.22;;
67174;SDS011;54110;45.778;4.826;2022-12-07T02:03:56;3.92;;;2.30;;
67174;SDS011;54110;45.778;4.826;2022-12-07T02:06:24;5.25;;;2.17;;
67174;SDS011;54110;45.778;4.826;2022-12-07T02:08:52;5.38;;;2.10;;
67174;SDS011;54110;45.778;4.826;2022-12-07T02:11:19;6.82;;;2.55;;
67174;SDS011;54110;45.778;4.826;2022-12-07T02:13:45;5.63;;;2.28;;
67174;SDS011;54110;45.778;4.826;2022-12-07T02:16:15;2.97;;;1.70;;
67174;SDS011;54110;45.778;4.826;2022-12-07T02:18:44;5.40;;;2.33;;
67174;SDS011;54110;45.778;4.826;2022-12-07T02:21:14;3.53;;;1.75;;
67174;SDS011;54110;45.778;4.826;2022-12-07T02:23:55;4.65;;;2.08;;
67174;SDS011;54110;45.778;4.826;2022-12-07T02:26:50;2.85;;;1.75;;
67174;SDS011;54110;45.778;4.826;2022-12-07T02:29:23;3.75;;;1.65;;
67174;SDS011;54110;45.778;4.826;2022-12-07T02:31:53;3.40;;;1.75;;
67174;SDS011;54110;45.778;4.826;2022-12-07T02:34:22;4.82;;;2.03;;
67174;SDS011;54110;45.778;4.826;2022-12-07T02:36:54;2.80;;;1.92;;
67174;SDS011;54110;45.778;4.826;2022-12-07T02:39:23;5.07;;;2.00;;
67174;SDS011;54110;45.778;4.826;2022-12-07T02:41:52;8.35;;;1.83;;
67174;SDS011;54110;45.778;4.826;2022-12-07T02:44:20;3.83;;;2.13;;
67174;SDS011;54110;45.778;4.826;2022-12-07T02:46:50;2.90;;;1.85;;
67174;SDS011;54110;45.778;4.826;2022-12-07T02:49:16;5.00;;;2.40;;
67174;SDS011;54110;45.778;4.826;2022-12-07T02:51:44;4.60;;;2.28;;
67174;SDS011;54110;45.778;4.826;2022-12-07T02:54:10;3.55;;;2.10;;
67174;SDS011;54110;45.778;4.826;2022-12-07T02:56:38;5.13;;;2.28;;
67174;SDS011;54110;45.778;4.826;2022-12-07T02:59:09;7.03;;;2.10;;
67174;SDS011;54110;45.778;4.826;2022-12-07T03:01:41;4.30;;;1.75;;
67174;SDS011;54110;45.778;4.826;2022-12-07T03:04:14;2.95;;;1.92;;
67174;SDS011;54110;45.778;4.826;2022-12-07T03:06:47;2.38;;;1.52;;
67174;SDS011;54110;45.778;4.826;2022-12-07T03:09:17;3.00;;;1.60;;
67174;SDS011;54110;45.778;4.826;2022-12-07T03:11:46;5.05;;;1.92;;
67174;SDS011;54110;45.778;4.826;2022-12-07T03:14:15;3.97;;;1.70;;
67174;SDS011;54110;45.778;4.826;2022-12-07T03:16:43;2.33;;;1.55;;
67174;SDS011;54110;45.778;4.826;2022-12-07T03:19:11;3.70;;;1.55;;
67174;SDS011;54110;45.778;4.826;2022-12-07T03:21:41;4.82;;;2.10;;
67174;SDS011;54110;45.778;4.826;2022-12-07T03:24:08;2.72;;;1.60;;
67174;SDS011;54110;45.778;4.826;2022-12-07T03:26:36;2.08;;;1.42;;
67174;SDS011;54110;45.778;4.826;2022-12-07T03:29:04;3.75;;;1.77;;
67174;SDS011;54110;45.778;4.826;2022-12-07T03:31:32;3.75;;;2.10;;
67174;SDS011;54110;45.778;4.826;2022-12-07T03:33:59;2.90;;;1.67;;
67174;SDS011;54110;45.778;4.826;2022-12-07T03:36:29;2.17;;;1.38;;
67174;SDS011;54110;45.778;4.826;2022-12-07T03:39:00;2.97;;;1.80;;
67174;SDS011;54110;45.778;4.826;2022-12-07T03:41:29;4.32;;;1.42;;
67174;SDS011;54110;45.778;4.826;2022-12-07T03:43:55;2.20;;;1.20;;
67174;SDS011;54110;45.778;4.826;2022-12-07T03:46:24;3.00;;;1.50;;
67174;SDS011;54110;45.778;4.826;2022-12-07T03:48:55;1.77;;;1.30;;
67174;SDS011;54110;45.778;4.826;2022-12-07T03:51:24;3.47;;;1.25;;
67174;SDS011;54110;45.778;4.826;2022-12-07T03:53:52;2.22;;;1.17;;
67174;SDS011;54110;45.778;4.826;2022-12-07T03:56:21;3.25;;;1.55;;
67174;SDS011;54110;45.778;4.826;2022-12-07T03:58:48;2.85;;;1.35;;
67174;SDS011;54110;45.778;4.826;2022-12-07T04:01:14;3.17;;;1.20;;
67174;SDS011;54110;45.778;4.826;2022-12-07T04:03:40;3.13;;;1.42;;
67174;SDS011;54110;45.778;4.826;2022-12-07T04:06:06;3.47;;;1.60;;
67174;SDS011;54110;45.778;4.826;2022-12-07T04:08:32;3.47;;;1.77;;
67174;SDS011;54110;45.778;4.826;2022-12-07T04:10:58;4.38;;;1.73;;
67174;SDS011;54110;45.778;4.826;2022-12-07T04:13:25;3.67;;;2.05;;
67174;SDS011;54110;45.778;4.826;2022-12-07T04:15:51;3.03;;;1.65;;
67174;SDS011;54110;45.778;4.826;2022-12-07T04:18:17;2.58;;;1.77;;
67174;SDS011;54110;45.778;4.826;2022-12-07T04:20:45;2.25;;;1.27;;
67174;SDS011;54110;45.778;4.826;2022-12-07T04:23:11;3.55;;;1.40;;
67174;SDS011;54110;45.778;4.826;2022-12-07T04:25:37;2.92;;;1.23;;
67174;SDS011;54110;45.778;4.826;2022-12-07T04:28:03;5.47;;;1.70;;
67174;SDS011;54110;45.778;4.826;2022-12-07T04:30:30;2.83;;;1.15;;
67174;SDS011;54110;45.778;4.826;2022-12-07T04:32:56;2.90;;;1.13;;
67174;SDS011;54110;45.778;4.826;2022-12-07T04:35:22;3.38;;;1.98;;
67174;SDS011;54110;45.778;4.826;2022-12-07T04:37:48;3.30;;;1.65;;
67174;SDS011;54110;45.778;4.826;2022-12-07T04:40:14;2.35;;;1.25;;
67174;SDS011;54110;45.778;4.826;2022-12-07T04:42:40;2.97;;;1.98;;
67174;SDS011;54110;45.778;4.826;2022-12-07T04:45:07;2.92;;;1.15;;
67174;SDS011;54110;45.778;4.826;2022-12-07T04:47:34;4.22;;;1.20;;
67174;SDS011;54110;45.778;4.826;2022-12-07T04:50:00;2.95;;;1.20;;
67174;SDS011;54110;45.778;4.826;2022-12-07T04:52:26;2.17;;;1.27;;
67174;SDS011;54110;45.778;4.826;2022-12-07T04:54:52;2.63;;;1.50;;
67174;SDS011;54110;45.778;4.826;2022-12-07T04:57:18;3.08;;;1.40;;
67174;SDS011;54110;45.778;4.826;2022-12-07T04:59:44;1.45;;;0.98;;
67174;SDS011;54110;45.778;4.826;2022-12-07T05:02:10;2.35;;;1.10;;
67174;SDS011;54110;45.778;4.826;2022-12-07T05:04:38;2.58;;;1.17;;
67174;SDS011;54110;45.778;4.826;2022-12-07T05:07:04;3.20;;;1.17;;
67174;SDS011;54110;45.778;4.826;2022-12-07T05:09:30;1.23;;;1.00;;
67174;SDS011;54110;45.778;4.826;2022-12-07T05:11:56;3.20;;;1.13;;
67174;SDS011;54110;45.778;4.826;2022-12-07T05:14:22;2.35;;;1.38;;
67174;SDS011;54110;45.778;4.826;2022-12-07T05:16:49;2.45;;;1.42;;
67174;SDS011;54110;45.778;4.826;2022-12-07T05:19:15;1.05;;;0.70;;
67174;SDS011;54110;45.778;4.826;2022-12-07T05:21:43;1.70;;;1.20;;
67174;SDS011;54110;45.778;4.826;2022-12-07T05:24:10;2.78;;;1.48;;
67174;SDS011;54110;45.778;4.826;2022-12-07T05:26:37;2.00;;;1.20;;
67174;SDS011;54110;45.778;4.826;2022-12-07T05:29:03;1.98;;;1.02;;
67174;SDS011;54110;45.778;4.826;2022-12-07T05:31:29;3.05;;;1.00;;
67174;SDS011;54110;45.778;4.826;2022-12-07T05:33:55;3.22;;;1.20;;
67174;SDS011;54110;45.778;4.826;2022-12-07T05:36:21;2.13;;;1.30;;
67174;SDS011;54110;45.778;4.826;2022-12-07T05:38:48;4.07;;;1.30;;
67174;SDS011;54110;45.778;4.826;2022-12-07T05:41:15;2.15;;;1.20;;
67174;SDS011;54110;45.778;4.826;2022-12-07T05:43:42;1.88;;;1.05;;
67174;SDS011;54110;45.778;4.826;2022-12-07T05:46:08;2.08;;;0.98;;
67174;SDS011;54110;45.778;4.826;2022-12-07T05:48:34;1.73;;;1.35;;
67174;SDS011;54110;45.778;4.826;2022-12-07T05:51:00;2.67;;;1.48;;
67174;SDS011;54110;45.778;4.826;2022-12-07T05:53:26;2.55;;;1.08;;
67174;SDS011;54110;45.778;4.826;2022-12-07T05:55:53;1.33;;;1.02;;
67174;SDS011;54110;45.778;4.826;2022-12-07T05:58:19;2.33;;;1.15;;
67174;SDS011;54110;45.778;4.826;2022-12-07T06:00:45;2.17;;;0.85;;
67174;SDS011;54110;45.778;4.826;2022-12-07T06:03:11;1.52;;;1.25;;
67174;SDS011;54110;45.778;4.826;2022-12-07T06:05:37;0.90;;;0.75;;
67174;SDS011;54110;45.778;4.826;2022-12-07T06:08:03;1.75;;;1.20;;
67174;SDS011;54110;45.778;4.826;2022-12-07T06:10:29;2.78;;;1.42;;
67174;SDS011;54110;45.778;4.826;2022-12-07T06:12:56;1.73;;;1.08;;
67174;SDS011;54110;45.778;4.826;2022-12-07T06:15:22;4.20;;;1.38;;
67174;SDS011;54110;45.778;4.826;2022-12-07T06:17:48;1.02;;;0.80;;
67174;SDS011;54110;45.778;4.826;2022-12-07T06:20:14;2.05;;;1.23;;
67174;SDS011;54110;45.778;4.826;2022-12-07T06:22:41;2.58;;;1.55;;
67174;SDS011;54110;45.778;4.826;2022-12-07T06:25:07;1.27;;;1.15;;
67174;SDS011;54110;45.778;4.826;2022-12-07T06:27:33;3.35;;;0.90;;
67174;SDS011;54110;45.778;4.826;2022-12-07T06:30:00;5.88;;;1.25;;
67174;SDS011;54110;45.778;4.826;2022-12-07T06:32:26;6.43;;;1.30;;
67174;SDS011;54110;45.778;4.826;2022-12-07T06:34:52;3.72;;;1.90;;
67174;SDS011;54110;45.778;4.826;2022-12-07T06:37:18;4.40;;;1.20;;
67174;SDS011;54110;45.778;4.826;2022-12-07T06:39:44;2.85;;;1.27;;
67174;SDS011;54110;45.778;4.826;2022-12-07T06:42:10;0.63;;;0.60;;
67174;SDS011;54110;45.778;4.826;2022-12-07T06:44:36;5.03;;;1.88;;
67174;SDS011;54110;45.778;4.826;2022-12-07T06:47:03;1.52;;;1.00;;
67174;SDS011;54110;45.778;4.826;2022-12-07T06:49:30;2.13;;;0.82;;
67174;SDS011;54110;45.778;4.826;2022-12-07T06:51:56;5.50;;;1.63;;
67174;SDS011;54110;45.778;4.826;2022-12-07T06:54:22;2.42;;;1.23;;
67174;SDS011;54110;45.778;4.826;2022-12-07T06:56:48;3.58;;;1.40;;
67174;SDS011;54110;45.778;4.826;2022-12-07T06:59:14;8.77;;;1.40;;
67174;SDS011;54110;45.778;4.826;2022-12-07T07:01:40;4.78;;;1.30;;
67174;SDS011;54110;45.778;4.826;2022-12-07T07:04:07;5.30;;;1.00;;
67174;SDS011;54110;45.778;4.826;2022-12-07T07:06:33;4.30;;;1.20;;
67174;SDS011;54110;45.778;4.826;2022-12-07T07:08:59;2.80;;;1.40;;
67174;SDS011;54110;45.778;4.826;2022-12-07T07:11:25;3.50;;;1.23;;
67174;SDS011;54110;45.778;4.826;2022-12-07T07:13:51;4.25;;;1.30;;
67174;SDS011;54110;45.778;4.826;2022-12-07T07:16:17;3.97;;;1.65;;
67174;SDS011;54110;45.778;4.826;2022-12-07T07:18:43;1.40;;;1.02;;
67174;SDS011;54110;45.778;4.826;2022-12-07T07:21:11;10.95;;;1.50;;
67174;SDS011;54110;45.778;4.826;2022-12-07T07:23:37;2.45;;;1.67;;
67174;SDS011;54110;45.778;4.826;2022-12-07T07:26:03;1.83;;;1.00;;
67174;SDS011;54110;45.778;4.826;2022-12-07T07:28:29;1.30;;;0.90;;
67174;SDS011;54110;45.778;4.826;2022-12-07T07:30:55;5.13;;;1.23;;
67174;SDS011;54110;45.778;4.826;2022-12-07T07:33:21;15.02;;;1.10;;
67174;SDS011;54110;45.778;4.826;2022-12-07T07:35:47;2.92;;;1.55;;
67174;SDS011;54110;45.778;4.826;2022-12-07T07:38:14;4.13;;;1.27;;
67174;SDS011;54110;45.778;4.826;2022-12-07T07:40:40;1.88;;;1.45;;
67174;SDS011;54110;45.778;4.826;2022-12-07T07:43:06;7.35;;;1.33;;
67174;SDS011;54110;45.778;4.826;2022-12-07T07:45:33;2.92;;;1.25;;
67174;SDS011;54110;45.778;4.826;2022-12-07T07:47:59;2.08;;;0.98;;
67174;SDS011;54110;45.778;4.826;2022-12-07T07:50:25;2.38;;;0.93;;
67174;SDS011;54110;45.778;4.826;2022-12-07T07:52:51;1.27;;;0.85;;
67174;SDS011;54110;45.778;4.826;2022-12-07T07:55:18;2.63;;;1.40;;
67174;SDS011;54110;45.778;4.826;2022-12-07T07:57:44;2.00;;;1.05;;
67174;SDS011;54110;45.778;4.826;2022-12-07T08:00:11;1.42;;;1.05;;
67174;SDS011;54110;45.778;4.826;2022-12-07T08:02:38;3.13;;;1.40;;
67174;SDS011;54110;45.778;4.826;2022-12-07T08:05:04;2.03;;;1.20;;
67174;SDS011;54110;45.778;4.826;2022-12-07T08:07:30;1.35;;;0.95;;
67174;SDS011;54110;45.778;4.826;2022-12-07T08:09:56;2.97;;;1.08;;
67174;SDS011;54110;45.778;4.826;2022-12-07T08:12:23;1.70;;;1.10;;
67174;SDS011;54110;45.778;4.826;2022-12-07T08:14:49;4.40;;;1.45;;
67174;SDS011;54110;45.778;4.826;2022-12-07T08:17:15;1.40;;;1.25;;
67174;SDS011;54110;45.778;4.826;2022-12-07T08:19:41;1.95;;;1.30;;
67174;SDS011;54110;45.778;4.826;2022-12-07T08:22:07;6.75;;;1.40;;
67174;SDS011;54110;45.778;4.826;2022-12-07T08:24:33;1.65;;;1.10;;
67174;SDS011;54110;45.778;4.826;2022-12-07T08:26:59;2.30;;;0.75;;
67174;SDS011;54110;45.778;4.826;2022-12-07T08:29:27;1.80;;;0.98;;
67174;SDS011;54110;45.778;4.826;2022-12-07T08:31:53;1.27;;;0.90;;
67174;SDS011;54110;45.778;4.826;2022-12-07T08:34:19;6.85;;;1.27;;
67174;SDS011;54110;45.778;4.826;2022-12-07T08:36:45;2.42;;;1.15;;
67174;SDS011;54110;45.778;4.826;2022-12-07T08:39:11;2.47;;;0.85;;
67174;SDS011;54110;45.778;4.826;2022-12-07T08:41:37;1.67;;;1.15;;
67174;SDS011;54110;45.778;4.826;2022-12-07T08:44:03;1.05;;;0.77;;
67174;SDS011;54110;45.778;4.826;2022-12-07T08:46:31;2.00;;;0.90;;
67174;SDS011;54110;45.778;4.826;2022-12-07T08:49:02;2.75;;;1.45;;
67174;SDS011;54110;45.778;4.826;2022-12-07T08:51:29;1.83;;;1.35;;
67174;SDS011;54110;45.778;4.826;2022-12-07T08:53:55;7.68;;;1.23;;
67174;SDS011;54110;45.778;4.826;2022-12-07T08:56:22;3.75;;;1.35;;
67174;SDS011;54110;45.778;4.826;2022-12-07T08:58:48;1.25;;;1.13;;
67174;SDS011;54110;45.778;4.826;2022-12-07T09:01:14;2.22;;;1.38;;
67174;SDS011;54110;45.778;4.826;2022-12-07T09:03:42;1.80;;;1.00;;
67174;SDS011;54110;45.778;4.826;2022-12-07T09:06:08;3.47;;;1.67;;
67174;SDS011;54110;45.778;4.826;2022-12-07T09:08:34;5.00;;;1.50;;
67174;SDS011;54110;45.778;4.826;2022-12-07T09:11:02;2.55;;;1.33;;
67174;SDS011;54110;45.778;4.826;2022-12-07T09:13:28;2.17;;;1.17;;
67174;SDS011;54110;45.778;4.826;2022-12-07T09:15:54;2.90;;;1.52;;
67174;SDS011;54110;45.778;4.826;2022-12-07T09:18:20;2.92;;;1.50;;
67174;SDS011;54110;45.778;4.826;2022-12-07T09:20:48;3.03;;;1.15;;
67174;SDS011;54110;45.778;4.826;2022-12-07T09:23:14;2.67;;;1.90;;
67174;SDS011;54110;45.778;4.826;2022-12-07T09:25:40;5.75;;;1.27;;
67174;SDS011;54110;45.778;4.826;2022-12-07T09:28:06;1.73;;;1.02;;
67174;SDS011;54110;45.778;4.826;2022-12-07T09:30:32;1.52;;;1.13;;
67174;SDS011;54110;45.778;4.826;2022-12-07T09:32:58;3.35;;;1.55;;
67174;SDS011;54110;45.778;4.826;2022-12-07T09:35:24;3.25;;;1.67;;
67174;SDS011;54110;45.778;4.826;2022-12-07T09:37:51;2.63;;;1.42;;
67174;SDS011;54110;45.778;4.826;2022-12-07T09:40:18;3.28;;;1.80;;
67174;SDS011;54110;45.778;4.826;2022-12-07T09:42:45;2.33;;;1.30;;
67174;SDS011;54110;45.778;4.826;2022-12-07T09:45:14;2.85;;;1.30;;
67174;SDS011;54110;45.778;4.826;2022-12-07T09:47:40;2.45;;;1.35;;
67174;SDS011;54110;45.778;4.826;2022-12-07T09:50:10;1.35;;;0.98;;
67174;SDS011;54110;45.778;4.826;2022-12-07T09:52:37;2.92;;;1.45;;
67174;SDS011;54110;45.778;4.826;2022-12-07T09:55:09;2.88;;;1.70;;
67174;SDS011;54110;45.778;4.826;2022-12-07T09:57:36;8.10;;;1.83;;
67174;SDS011;54110;45.778;4.826;2022-12-07T10:00:03;4.32;;;1.70;;
67174;SDS011;54110;45.778;4.826;2022-12-07T10:02:34;2.80;;;1.40;;
67174;SDS011;54110;45.778;4.826;2022-12-07T10:05:00;3.42;;;1.63;;
67174;SDS011;54110;45.778;4.826;2022-12-07T10:07:27;2.67;;;1.35;;
67174;SDS011;54110;45.778;4.826;2022-12-07T10:09:53;2.28;;;1.50;;
67174;SDS011;54110;45.778;4.826;2022-12-07T10:12:20;5.07;;;1.70;;
67174;SDS011;54110;45.778;4.826;2022-12-07T10:14:53;1.85;;;1.10;;
67174;SDS011;54110;45.778;4.826;2022-12-07T10:17:30;1.55;;;1.08;;
67174;SDS011;54110;45.778;4.826;2022-12-07T10:20:08;2.67;;;1.20;;
67174;SDS011;54110;45.778;4.826;2022-12-07T10:22:34;3.40;;;1.33;;
67174;SDS011;54110;45.778;4.826;2022-12-07T10:25:07;3.40;;;1.35;;
67174;SDS011;54110;45.778;4.826;2022-12-07T10:27:34;1.92;;;1.33;;
67174;SDS011;54110;45.778;4.826;2022-12-07T10:30:01;3.20;;;1.45;;
67174;SDS011;54110;45.778;4.826;2022-12-07T10:32:33;2.97;;;1.23;;
67174;SDS011;54110;45.778;4.826;2022-12-07T10:35:18;3.25;;;1.50;;
67174;SDS011;54110;45.778;4.826;2022-12-07T10:37:44;4.63;;;1.65;;
67174;SDS011;54110;45.778;4.826;2022-12-07T10:40:23;3.15;;;1.75;;
67174;SDS011;54110;45.778;4.826;2022-12-07T10:43:01;2.20;;;1.08;;
67174;SDS011;54110;45.778;4.826;2022-12-07T10:45:27;10.07;;;2.13;;
67174;SDS011;54110;45.778;4.826;2022-12-07T10:47:55;3.20;;;1.35;;
67174;SDS011;54110;45.778;4.826;2022-12-07T10:50:29;3.65;;;1.70;;
67174;SDS011;54110;45.778;4.826;2022-12-07T10:55:52;2.55;;;1.60;;
67174;SDS011;54110;45.778;4.826;2022-12-07T10:58:28;5.57;;;1.83;;
67174;SDS011;54110;45.778;4.826;2022-12-07T11:00:58;8.05;;;1.92;;
67174;SDS011;54110;45.778;4.826;2022-12-07T11:03:30;6.05;;;2.13;;
67174;SDS011;54110;45.778;4.826;2022-12-07T11:06:00;2.83;;;1.85;;
67174;SDS011;54110;45.778;4.826;2022-12-07T11:08:37;3.83;;;1.85;;
67174;SDS011;54110;45.778;4.826;2022-12-07T11:11:06;4.05;;;1.88;;
67174;SDS011;54110;45.778;4.826;2022-12-07T11:13:36;2.65;;;1.60;;
67174;SDS011;54110;45.778;4.826;2022-12-07T11:16:08;3.38;;;1.67;;
67174;SDS011;54110;45.778;4.826;2022-12-07T11:18:41;2.90;;;1.20;;
67174;SDS011;54110;45.778;4.826;2022-12-07T11:21:13;3.13;;;1.95;;
67174;SDS011;54110;45.778;4.826;2022-12-07T11:23:45;3.38;;;1.40;;
67174;SDS011;54110;45.778;4.826;2022-12-07T11:26:13;4.70;;;1.83;;
67174;SDS011;54110;45.778;4.826;2022-12-07T11:28:47;2.22;;;1.30;;
67174;SDS011;54110;45.778;4.826;2022-12-07T11:31:18;5.57;;;2.33;;
67174;SDS011;54110;45.778;4.826;2022-12-07T11:33:47;3.22;;;1.58;;
67174;SDS011;54110;45.778;4.826;2022-12-07T11:36:25;1.63;;;1.08;;
67174;SDS011;54110;45.778;4.826;2022-12-07T11:38:57;2.92;;;1.65;;
67174;SDS011;54110;45.778;4.826;2022-12-07T11:41:24;2.80;;;1.63;;
67174;SDS011;54110;45.778;4.826;2022-12-07T11:43:56;3.05;;;1.63;;
67174;SDS011;54110;45.778;4.826;2022-12-07T11:46:25;4.50;;;1.60;;
67174;SDS011;54110;45.778;4.826;2022-12-07T11:48:55;4.38;;;1.92;;
67174;SDS011;54110;45.778;4.826;2022-12-07T11:51:23;4.57;;;1.75;;
67174;SDS011;54110;45.778;4.826;2022-12-07T11:53:51;4.70;;;1.70;;
67174;SDS011;54110;45.778;4.826;2022-12-07T11:56:19;3.58;;;1.77;;
67174;SDS011;54110;45.778;4.826;2022-12-07T11:58:48;3.55;;;1.77;;
67174;SDS011;54110;45.778;4.826;2022-12-07T12:01:17;3.42;;;1.65;;
67174;SDS011;54110;45.778;4.826;2022-12-07T12:03:46;3.97;;;1.58;;
67174;SDS011;54110;45.778;4.826;2022-12-07T12:06:12;3.10;;;1.58;;
67174;SDS011;54110;45.778;4.826;2022-12-07T12:08:39;1.58;;;1.20;;
67174;SDS011;54110;45.778;4.826;2022-12-07T12:11:08;3.00;;;1.92;;
67174;SDS011;54110;45.778;4.826;2022-12-07T12:13:58;5.10;;;2.03;;
67174;SDS011;54110;45.778;4.826;2022-12-07T12:16:48;3.40;;;1.85;;
67174;SDS011;54110;45.778;4.826;2022-12-07T12:19:25;5.03;;;2.10;;
67174;SDS011;54110;45.778;4.826;2022-12-07T12:21:54;6.72;;;2.00;;
67174;SDS011;54110;45.778;4.826;2022-12-07T12:24:22;4.07;;;1.52;;
67174;SDS011;54110;45.778;4.826;2022-12-07T12:26:50;3.58;;;1.85;;
67174;SDS011;54110;45.778;4.826;2022-12-07T12:29:21;3.92;;;1.30;;
67174;SDS011;54110;45.778;4.826;2022-12-07T12:32:05;3.45;;;2.03;;
67174;SDS011;54110;45.778;4.826;2022-12-07T12:34:37;5.38;;;1.67;;
67174;SDS011;54110;45.778;4.826;2022-12-07T12:37:07;5.55;;;1.77;;
67174;SDS011;54110;45.778;4.826;2022-12-07T12:39:39;2.83;;;1.67;;
67174;SDS011;54110;45.778;4.826;2022-12-07T12:42:05;5.18;;;1.65;;
67174;SDS011;54110;45.778;4.826;2022-12-07T12:47:51;1.95;;;1.08;;
67174;SDS011;54110;45.778;4.826;2022-12-07T12:50:19;3.05;;;1.65;;
67174;SDS011;54110;45.778;4.826;2022-12-07T12:52:47;5.55;;;2.08;;
67174;SDS011;54110;45.778;4.826;2022-12-07T12:55:15;3.45;;;1.70;;
67174;SDS011;54110;45.778;4.826;2022-12-07T12:57:41;3.53;;;1.60;;
67174;SDS011;54110;45.778;4.826;2022-12-07T13:00:15;6.95;;;1.80;;
67174;SDS011;54110;45.778;4.826;2022-12-07T13:02:47;4.50;;;2.08;;
67174;SDS011;54110;45.778;4.826;2022-12-07T13:05:18;3.40;;;1.48;;
67174;SDS011;54110;45.778;4.826;2022-12-07T13:07:50;3.53;;;1.70;;
67174;SDS011;54110;45.778;4.826;2022-12-07T13:10:20;2.97;;;1.75;;
67174;SDS011;54110;45.778;4.826;2022-12-07T13:12:54;3.05;;;1.60;;
67174;SDS011;54110;45.778;4.826;2022-12-07T13:15:31;2.45;;;1.40;;
67174;SDS011;54110;45.778;4.826;2022-12-07T13:17:59;3.25;;;1.67;;
67174;SDS011;54110;45.778;4.826;2022-12-07T13:23:25;5.40;;;1.85;;
67174;SDS011;54110;45.778;4.826;2022-12-07T13:25:54;4.22;;;1.77;;
67174;SDS011;54110;45.778;4.826;2022-12-07T13:28:21;2.85;;;1.70;;
67174;SDS011;54110;45.778;4.826;2022-12-07T13:30:53;3.70;;;1.67;;
67174;SDS011;54110;45.778;4.826;2022-12-07T13:33:21;4.07;;;1.88;;
67174;SDS011;54110;45.778;4.826;2022-12-07T13:35:47;2.20;;;1.27;;
67174;SDS011;54110;45.778;4.826;2022-12-07T13:38:19;5.70;;;1.70;;
67174;SDS011;54110;45.778;4.826;2022-12-07T13:40:59;2.23;;;1.60;;
67174;SDS011;54110;45.778;4.826;2022-12-07T13:43:25;3.50;;;1.63;;
67174;SDS011;54110;45.778;4.826;2022-12-07T13:45:55;5.53;;;1.58;;
67174;SDS011;54110;45.778;4.826;2022-12-07T13:48:24;2.75;;;1.23;;
67174;SDS011;54110;45.778;4.826;2022-12-07T13:50:54;2.15;;;1.52;;
67174;SDS011;54110;45.778;4.826;2022-12-07T13:53:20;3.42;;;1.90;;
67174;SDS011;54110;45.778;4.826;2022-12-07T13:55:46;2.90;;;1.80;;
67174;SDS011;54110;45.778;4.826;2022-12-07T13:58:13;2.15;;;1.55;;
67174;SDS011;54110;45.778;4.826;2022-12-07T14:00:39;2.40;;;1.48;;
67174;SDS011;54110;45.778;4.826;2022-12-07T14:03:20;1.98;;;1.63;;
67174;SDS011;54110;45.778;4.826;2022-12-07T14:06:02;4.18;;;2.10;;
67174;SDS011;54110;45.778;4.826;2022-12-07T14:08:29;3.03;;;1.55;;
67174;SDS011;54110;45.778;4.826;2022-12-07T14:10:56;3.22;;;1.75;;
67174;SDS011;54110;45.778;4.826;2022-12-07T14:13:27;11.52;;;1.35;;
67174;SDS011;54110;45.778;4.826;2022-12-07T14:15:53;2.33;;;1.50;;
67174;SDS011;54110;45.778;4.826;2022-12-07T14:18:24;3.42;;;1.73;;
67174;SDS011;54110;45.778;4.826;2022-12-07T14:21:01;1.75;;;1.23;;
67174;SDS011;54110;45.778;4.826;2022-12-07T14:23:28;2.88;;;1.40;;
67174;SDS011;54110;45.778;4.826;2022-12-07T14:25:54;6.70;;;1.88;;
67174;SDS011;54110;45.778;4.826;2022-12-07T14:28:26;5.47;;;2.38;;
67174;SDS011;54110;45.778;4.826;2022-12-07T14:30:52;2.60;;;1.48;;
67174;SDS011;54110;45.778;4.826;2022-12-07T14:33:18;1.63;;;1.23;;
67174;SDS011;54110;45.778;4.826;2022-12-07T14:35:45;2.15;;;1.13;;
67174;SDS011;54110;45.778;4.826;2022-12-07T14:38:12;2.78;;;1.30;;
67174;SDS011;54110;45.778;4.826;2022-12-07T14:40:38;3.08;;;1.42;;
67174;SDS011;54110;45.778;4.826;2022-12-07T14:43:05;2.05;;;1.20;;
67174;SDS011;54110;45.778;4.826;2022-12-07T14:45:32;4.15;;;1.30;;
67174;SDS011;54110;45.778;4.826;2022-12-07T14:47:58;7.13;;;2.05;;
67174;SDS011;54110;45.778;4.826;2022-12-07T14:50:24;4.28;;;1.23;;
67174;SDS011;54110;45.778;4.826;2022-12-07T14:52:51;4.13;;;1.30;;
67174;SDS011;54110;45.778;4.826;2022-12-07T14:55:20;2.45;;;1.40;;
67174;SDS011;54110;45.778;4.826;2022-12-07T14:57:48;2.92;;;1.50;;
67174;SDS011;54110;45.778;4.826;2022-12-07T15:00:15;3.88;;;1.50;;
67174;SDS011;54110;45.778;4.826;2022-12-07T15:02:41;3.33;;;1.42;;